Liffré (35) - F

Date : 29/10/2012
Distance : 4,000 km

Place Nom Licence Catégorie Club Temps min/km CN à J-60 Points Différence Nouveau CN
1 DROIN Solène 17925 D16 4201RA 0:33:31 8'22 5152 6842 +1690 5643
2 BEAUVIR Maëlle 12709 D16 3502BR 0:35:43 8'55 4940 6421 +1481 5321
3 BOUSSER Etienne 1843 H65 5702LO 0:37:04 9'16 6581 6187 -394 6540
4 DAYON Pierre 15718 H60 4012AQ 0:44:33 11'08 5146 5148 +2 5420
5 ROULLEAUX Julie 11559 D16 9105IF 0:45:43 11'25 4799 5016 +217 4854
6 MASCARELL Henri 8928 H60 6911RA 0:45:51 11'27 5397 5002 -395 5331
7 PREVOST Pascale 922 D55 7707IF 0:47:07 11'46 5426 4867 -559 5426
8 BODY Mathilde 10184 D16 7305RA 0:47:22 11'50 5328 4841 -487 5280
9 PETIT Guyonne 4372 D55 7808IF 0:48:49 12'12 4423 4698 +275 4448
10 DELENNE Camilla 13800 D16 1307PR 0:49:52 12'28 4132 4599 +467 4461
11 DARTHIAIL Jean-Paul 3254 H60 3308AQ 0:51:11 12'47 5416 4480 -936 5416
12 DECHAVANNE J-Francois 3461 H60 6911RA 0:51:49 12'57 5834 4426 -1408 5834
13 MARTIN Pascale 23568 D50 7512IF 0:53:50 13'27 4494 4260 -234 4471
14 VERNOTTE Louise 23552 D16 1905LI 0:54:40 13'40 2938 4195 +1257 3709
15 RIVOLLIER Isaline 22451 D16 4201RA 0:55:38 13'54 4296 4122 -174 4202
16 LOUAT Aime 12192 H60 8903BO 0:55:49 13'57 4432 4109 -323 4131
17 BASSET Fiona 23384 D16 6911RA 0:55:58 13'59 4275 4098 -177 4492
18 BESTEL Sandra 10758 D16 9105IF 0:56:18 14'04 3840 4073 +233 3981
19 MARCHESIN Sylvie 1487 D50 5702LO 0:56:33 14'08 5077 4055 -1022 4886
20 PETER-JAN Lucile 19276 D16 3705CE 0:57:49 14'27 4539 3966 -573 4571
21 DUQUENNE Audrey 23885 D16 5907NO 0:58:24 14'36 3734 3927 +193 4021
22 BLUM Virginie 12646 D50 5116CA 0:58:35 14'38 4231 3914 -317 4138
23 BONNET Christine 2400 D55 5402LO 0:58:54 14'43 4903 3893 -1010 4829
24 CRETE Juliette 18829 D16 6008PI 1:00:52 15'13 3141 3768 +627 3703
25 BERGER-CAPBERN Valérie 6068 D50 3105MP 1:03:11 15'47 5035 3629 -1406 4999
26 ANGLADE Lucile 21188 D16 5604BR 1:03:18 15'49 3832 3623 -209 3997
27 VUILLET Christian 2712 H60 2105BO 1:03:55 15'58 4477 3588 -889 4418
28 OUDIN Bernard 7573 H60 6804AL 1:04:42 16'10 4958 3544 -1414 5054
29 BULLIER Alisson 23427 D16 0207PI 1:06:11 16'32 2567 3465 +898 2920
30 CORDEIRO MENDES Myriam 9235 D50 6008PI 1:06:39 16'39 3683 3441 -242 3659
31 REYNAUD Renée 8868 D55 6307AU 1:07:06 16'46 4069 3418 -651 4152
32 VOGT Claude 2558 H65 6709AL 1:09:28 17'22 4437 3301 -1136 4510
33 TESSIER Daniel 2006 H60 7709IF 1:09:54 17'28 4446 3281 -1165 4343
34 TOUZAIN ROULLEAUX Isabelle 8920 D50 9105IF 1:10:37 17'39 3933 3247 -686 3874
35 BOULANGER Isabelle 10639 D55 5907NO 1:11:01 17'45 3291 3229 -62 3362
36 MARTINET JANNIN Léa 26512 D16 2517FC 1:11:55 17'58 3189 3037
37 MASSON Michel 4317 H60 2105BO 1:12:49 18'12 4065 3149 -916 3898
38 MOUSSU Sarah 22301 D16 3318AQ 1:14:28 18'37 3858 3080 -778 3942
39 KORCHAK Lena 13637 D50 6806AL 1:16:03 19'00 4771 3015 -1756 4779
40 LEFRANÇOIS Gérard 1938 H65 9502IF 1:16:13 19'03 3327 3009 -318 3776
41 ROUX Marie Françoise 25236 D50 4201RA 1:16:36 19'09 3832 2994 -838 3900
42 LECUYER Manon 22549 D16 5907NO 1:17:55 19'28 2796 2943 +147 3317
43 GERBEAUX Jean-paul 23596 H60 6205NO 1:19:00 19'45 3577 2903 -674 3527
44 DUPOIRIEUX Sophie 10496 D50 8807LO 1:20:21 20'05 4025 2854 -1171 3963
45 MARTIN Gilbert 5141 H60 9404IF 1:20:23 20'05 4575 2853 -1722 4644
46 TERRILLON Marie-Therese 15717 D50 4012AQ 1:25:24 21'21 4196 2685 -1511 4196
47 THIEBAUT Evelyne 16129 D55 5702LO 1:26:24 21'36 3337 2654 -683 3115
48 HUMBERTCLAUDE J-Paul 16205 H65 5909NO 1:27:56 21'59 4069 2608 -1461 4119
49 ENDRESS Pauline 26600 D21 3502BR 1:30:40 22'40 2529 2428
50 BARLET Nancy 9364 D55 5402LO 1:32:04 23'01 3828 2491 -1337 3779
51 GREVET Claudie 15296 D50 6806AL 1:33:59 23'29 2930 2440 -490 2983
52 FOLTZER Cécile 26907 D16 2517FC 1:34:09 23'32 2436 2339
53 FEUGEAS Clothilde 22198 D16 1905LI 1:34:36 23'39 2309 2424 +115 2545
54 CAZEMAYOR Tess 22291 D16 3318AQ 1:34:54 23'43 2816 2416 -400 3024
55 DIEUDONNE Roland 1381 H65 7808IF 1:36:21 24'05 3343 2380 -963 3315
56 EUDIER Agnes 13233 D50 2704NM 1:37:26 24'21 4017 2354 -1663 4001
57 BOUCHE Sylvie 7520 D50 9105IF 1:39:37 24'54 3395 2302 -1093 3472
58 BAUDOIN Jean-Paul 16352 H60 0615AZ 1:40:04 25'01 4128 2292 -1836 4122
59 SCHELCHER Ginette 20409 D50 6806AL 1:48:05 27'01 3750 2122 -1628 3856
60 TESSIER Ariane 2004 D55 7709IF 1:50:01 27'30 2755 2084 -671 2713
61 DUFOUR Marie 26623 D16 7407RA 1:50:21 27'35 2078 1789
62 COURNUT Alain 626 H65 3308AQ 1:52:05 28'01 4407 2046 -2361 4401
63 DELVA Lou 26620 D16 7407RA 1:54:20 28'35 2006 1926
64 CANCE Julie 25241 D16 1905LI 2:24:06 36'01 1341 1591 +250 2069
65 BERION Marie-Josephe 23056 D55 2508FC 2:33:28 38'22 2082 1494 -588 2413
PINZELLI Tamara 23551 D16 1905LI abandon None 3227 0 3436
DUDOUT Malaurine 24516 D16 2704NM pm None 2541 0 3633
LUTHRINGER Coline 10091 D16 8809LO pm None 4381 0 4310
FOL Loreline 16393 D16 3105MP pm None 4263 0 4315
BUCAMP Noémie 25200 D16 6008PI pm None 2055 0 2689
GIBIAT Danielle 3547 D55 8405PR pm None 3211 0 3297
DESCOURVIERES Perrine 25550 D16 7407RA pm None 1928 0 1949